sensor_id;sensor_type;location;lat;lon;timestamp;pressure;altitude;pressure_sealevel;temperature;humidity
11049;BME280;5577;42.706;23.160;2023-10-08T00:02:33;94611.06;;;12.55;95.07
11049;BME280;5577;42.706;23.160;2023-10-08T00:05:17;94606.88;;;12.38;98.51
11049;BME280;5577;42.706;23.160;2023-10-08T00:08:03;94603.72;;;12.33;100.00
11049;BME280;5577;42.706;23.160;2023-10-08T00:10:48;94611.97;;;11.81;100.00
11049;BME280;5577;42.706;23.160;2023-10-08T00:13:33;94605.97;;;11.69;100.00
11049;BME280;5577;42.706;23.160;2023-10-08T00:16:27;94606.97;;;11.64;100.00
11049;BME280;5577;42.706;23.160;2023-10-08T00:19:12;94606.44;;;11.58;100.00
11049;BME280;5577;42.706;23.160;2023-10-08T00:21:59;94599.28;;;11.47;100.00
11049;BME280;5577;42.706;23.160;2023-10-08T00:24:48;94592.94;;;11.36;100.00
11049;BME280;5577;42.706;23.160;2023-10-08T00:27:38;94594.44;;;11.21;100.00
11049;BME280;5577;42.706;23.160;2023-10-08T00:30:22;94583.13;;;11.36;100.00
11049;BME280;5577;42.706;23.160;2023-10-08T00:33:06;94574.31;;;11.76;100.00
11049;BME280;5577;42.706;23.160;2023-10-08T00:35:52;94576.25;;;11.94;100.00
11049;BME280;5577;42.706;23.160;2023-10-08T00:38:36;94570.44;;;12.04;100.00
11049;BME280;5577;42.706;23.160;2023-10-08T00:41:21;94580.03;;;12.09;100.00
11049;BME280;5577;42.706;23.160;2023-10-08T00:44:10;94576.69;;;12.12;100.00
11049;BME280;5577;42.706;23.160;2023-10-08T00:47:01;94574.44;;;12.14;100.00
11049;BME280;5577;42.706;23.160;2023-10-08T00:49:45;94570.03;;;12.02;100.00
11049;BME280;5577;42.706;23.160;2023-10-08T00:52:29;94576.78;;;12.00;100.00
11049;BME280;5577;42.706;23.160;2023-10-08T00:55:16;94561.38;;;11.90;100.00
11049;BME280;5577;42.706;23.160;2023-10-08T00:58:12;94561.47;;;11.78;100.00
11049;BME280;5577;42.706;23.160;2023-10-08T01:01:07;94566.66;;;11.58;100.00
11049;BME280;5577;42.706;23.160;2023-10-08T01:03:54;94565.78;;;11.54;100.00
11049;BME280;5577;42.706;23.160;2023-10-08T01:06:39;94558.25;;;11.56;100.00
11049;BME280;5577;42.706;23.160;2023-10-08T01:09:24;94556.53;;;11.48;100.00
11049;BME280;5577;42.706;23.160;2023-10-08T01:12:20;94554.03;;;11.40;100.00
11049;BME280;5577;42.706;23.160;2023-10-08T01:15:10;94551.91;;;11.45;100.00
11049;BME280;5577;42.706;23.160;2023-10-08T01:18:03;94550.97;;;11.53;100.00
11049;BME280;5577;42.706;23.160;2023-10-08T01:20:58;94545.03;;;11.72;100.00
11049;BME280;5577;42.706;23.160;2023-10-08T01:23:48;94546.91;;;11.72;100.00
11049;BME280;5577;42.706;23.160;2023-10-08T01:26:34;94556.69;;;11.40;100.00
11049;BME280;5577;42.706;23.160;2023-10-08T01:29:22;94548.03;;;11.27;100.00
11049;BME280;5577;42.706;23.160;2023-10-08T01:32:08;94552.91;;;11.25;100.00
11049;BME280;5577;42.706;23.160;2023-10-08T01:34:55;94548.97;;;11.19;100.00
11049;BME280;5577;42.706;23.160;2023-10-08T01:37:40;94559.31;;;11.24;100.00
11049;BME280;5577;42.706;23.160;2023-10-08T01:40:24;94552.59;;;11.58;100.00
11049;BME280;5577;42.706;23.160;2023-10-08T01:43:08;94544.69;;;12.05;100.00
11049;BME280;5577;42.706;23.160;2023-10-08T01:45:52;94559.16;;;12.42;100.00
11049;BME280;5577;42.706;23.160;2023-10-08T01:48:36;94560.19;;;12.53;97.07
11049;BME280;5577;42.706;23.160;2023-10-08T01:51:21;94552.38;;;12.60;95.64
11049;BME280;5577;42.706;23.160;2023-10-08T01:54:20;94550.00;;;12.74;93.52
11049;BME280;5577;42.706;23.160;2023-10-08T01:57:05;94547.84;;;12.79;91.61
11049;BME280;5577;42.706;23.160;2023-10-08T01:59:52;94549.91;;;12.89;89.70
11049;BME280;5577;42.706;23.160;2023-10-08T02:02:38;94540.50;;;12.92;89.30
11049;BME280;5577;42.706;23.160;2023-10-08T02:05:24;94546.13;;;13.06;88.81
11049;BME280;5577;42.706;23.160;2023-10-08T02:08:10;94548.84;;;13.09;87.57
11049;BME280;5577;42.706;23.160;2023-10-08T02:10:55;94548.50;;;13.11;86.57
11049;BME280;5577;42.706;23.160;2023-10-08T02:13:40;94544.34;;;13.13;87.59
11049;BME280;5577;42.706;23.160;2023-10-08T02:16:24;94543.47;;;13.06;86.22
11049;BME280;5577;42.706;23.160;2023-10-08T02:19:08;94535.91;;;13.08;86.07
11049;BME280;5577;42.706;23.160;2023-10-08T02:21:55;94545.44;;;13.09;86.43
11049;BME280;5577;42.706;23.160;2023-10-08T02:24:39;94540.50;;;13.11;87.20
11049;BME280;5577;42.706;23.160;2023-10-08T02:27:23;94543.47;;;13.06;92.62
11049;BME280;5577;42.706;23.160;2023-10-08T02:30:09;94539.44;;;12.96;90.80
11049;BME280;5577;42.706;23.160;2023-10-08T02:32:56;94525.16;;;12.85;91.86
11049;BME280;5577;42.706;23.160;2023-10-08T02:35:46;94530.13;;;12.87;89.32
11049;BME280;5577;42.706;23.160;2023-10-08T02:38:30;94524.81;;;12.87;88.27
11049;BME280;5577;42.706;23.160;2023-10-08T02:41:21;94520.78;;;12.93;86.68
11049;BME280;5577;42.706;23.160;2023-10-08T02:44:08;94537.66;;;13.00;86.28
11049;BME280;5577;42.706;23.160;2023-10-08T02:46:56;94523.94;;;12.98;86.79
11049;BME280;5577;42.706;23.160;2023-10-08T02:49:39;94529.19;;;12.95;87.63
11049;BME280;5577;42.706;23.160;2023-10-08T02:52:26;94542.38;;;12.91;87.92
11049;BME280;5577;42.706;23.160;2023-10-08T02:55:11;94538.19;;;12.90;89.68
11049;BME280;5577;42.706;23.160;2023-10-08T02:58:18;94546.44;;;12.85;88.41
11049;BME280;5577;42.706;23.160;2023-10-08T03:01:06;94543.22;;;12.76;88.67
11049;BME280;5577;42.706;23.160;2023-10-08T03:03:51;94535.09;;;12.69;89.90
11049;BME280;5577;42.706;23.160;2023-10-08T03:06:38;94533.94;;;12.67;89.38
11049;BME280;5577;42.706;23.160;2023-10-08T03:09:22;94536.84;;;12.62;89.69
11049;BME280;5577;42.706;23.160;2023-10-08T03:12:08;94538.59;;;12.54;89.39
11049;BME280;5577;42.706;23.160;2023-10-08T03:14:54;94522.28;;;12.56;89.68
11049;BME280;5577;42.706;23.160;2023-10-08T03:18:02;94525.53;;;12.65;87.89
11049;BME280;5577;42.706;23.160;2023-10-08T03:20:53;94530.63;;;12.73;87.44
11049;BME280;5577;42.706;23.160;2023-10-08T03:23:37;94512.81;;;12.74;86.85
11049;BME280;5577;42.706;23.160;2023-10-08T03:26:27;94482.19;;;12.61;88.69
11049;BME280;5577;42.706;23.160;2023-10-08T03:29:14;94526.00;;;12.89;89.09
11049;BME280;5577;42.706;23.160;2023-10-08T03:31:59;94530.84;;;12.84;88.94
11049;BME280;5577;42.706;23.160;2023-10-08T03:34:50;94463.81;;;12.33;89.67
11049;BME280;5577;42.706;23.160;2023-10-08T03:37:34;94525.53;;;12.65;90.58
11049;BME280;5577;42.706;23.160;2023-10-08T03:40:24;94527.41;;;12.64;93.48
11049;BME280;5577;42.706;23.160;2023-10-08T03:43:27;94527.31;;;12.42;93.66
11049;BME280;5577;42.706;23.160;2023-10-08T03:46:34;94505.69;;;12.24;95.45
11049;BME280;5577;42.706;23.160;2023-10-08T03:49:27;94512.28;;;12.30;95.23
11049;BME280;5577;42.706;23.160;2023-10-08T03:52:12;94505.06;;;12.31;94.34
11049;BME280;5577;42.706;23.160;2023-10-08T03:54:56;94502.66;;;12.41;95.32
11049;BME280;5577;42.706;23.160;2023-10-08T03:57:57;94501.88;;;12.41;94.50
11049;BME280;5577;42.706;23.160;2023-10-08T04:00:42;94506.84;;;12.42;94.63
11049;BME280;5577;42.706;23.160;2023-10-08T04:03:29;94501.72;;;12.34;96.88
11049;BME280;5577;42.706;23.160;2023-10-08T04:06:29;94494.06;;;12.13;98.83
11049;BME280;5577;42.706;23.160;2023-10-08T04:09:15;94496.56;;;12.06;98.95
11049;BME280;5577;42.706;23.160;2023-10-08T04:12:03;94496.03;;;12.16;99.53
11049;BME280;5577;42.706;23.160;2023-10-08T04:14:54;94502.09;;;12.17;98.84
11049;BME280;5577;42.706;23.160;2023-10-08T04:17:39;94497.22;;;12.19;99.65
11049;BME280;5577;42.706;23.160;2023-10-08T04:20:35;94502.94;;;12.21;98.81
11049;BME280;5577;42.706;23.160;2023-10-08T04:23:22;94486.47;;;12.31;100.00
11049;BME280;5577;42.706;23.160;2023-10-08T04:26:05;94489.63;;;12.17;100.00
11049;BME280;5577;42.706;23.160;2023-10-08T04:28:54;94508.88;;;12.14;100.00
11049;BME280;5577;42.706;23.160;2023-10-08T04:31:41;94469.50;;;12.16;98.79
11049;BME280;5577;42.706;23.160;2023-10-08T04:34:28;94487.06;;;12.40;97.03
11049;BME280;5577;42.706;23.160;2023-10-08T04:37:13;94484.34;;;12.55;95.76
11049;BME280;5577;42.706;23.160;2023-10-08T04:40:01;94485.69;;;12.46;96.84
11049;BME280;5577;42.706;23.160;2023-10-08T04:42:45;94496.66;;;12.44;97.29
11049;BME280;5577;42.706;23.160;2023-10-08T04:45:32;94494.41;;;12.46;95.46
11049;BME280;5577;42.706;23.160;2023-10-08T04:48:18;94503.28;;;12.54;96.38
11049;BME280;5577;42.706;23.160;2023-10-08T04:51:04;94506.34;;;12.56;95.92
11049;BME280;5577;42.706;23.160;2023-10-08T04:53:48;94502.50;;;12.53;95.57
11049;BME280;5577;42.706;23.160;2023-10-08T04:56:32;94496.94;;;12.58;95.67
11049;BME280;5577;42.706;23.160;2023-10-08T04:59:17;94501.75;;;12.72;98.35
11049;BME280;5577;42.706;23.160;2023-10-08T05:02:05;94498.81;;;12.77;99.34
11049;BME280;5577;42.706;23.160;2023-10-08T05:05:05;94507.31;;;12.82;100.00
11049;BME280;5577;42.706;23.160;2023-10-08T05:07:55;94502.53;;;12.72;100.00
11049;BME280;5577;42.706;23.160;2023-10-08T05:10:46;94506.72;;;12.73;100.00
11049;BME280;5577;42.706;23.160;2023-10-08T05:13:44;94504.91;;;12.77;96.48
11049;BME280;5577;42.706;23.160;2023-10-08T05:16:46;94500.56;;;12.88;96.73
11049;BME280;5577;42.706;23.160;2023-10-08T05:19:44;94503.94;;;13.04;95.25
11049;BME280;5577;42.706;23.160;2023-10-08T05:22:47;94498.53;;;13.20;91.11
11049;BME280;5577;42.706;23.160;2023-10-08T05:25:42;94497.31;;;13.36;92.21
11049;BME280;5577;42.706;23.160;2023-10-08T05:28:41;94493.28;;;13.46;89.13
11049;BME280;5577;42.706;23.160;2023-10-08T05:31:44;94498.81;;;13.56;88.17
11049;BME280;5577;42.706;23.160;2023-10-08T05:34:28;94506.94;;;13.67;85.08
11049;BME280;5577;42.706;23.160;2023-10-08T05:37:26;94506.47;;;13.84;84.80
11049;BME280;5577;42.706;23.160;2023-10-08T05:40:21;94502.06;;;13.95;83.83
11049;BME280;5577;42.706;23.160;2023-10-08T05:43:37;94482.16;;;13.85;84.05
11049;BME280;5577;42.706;23.160;2023-10-08T05:46:21;94509.97;;;14.14;82.93
11049;BME280;5577;42.706;23.160;2023-10-08T05:49:05;94511.97;;;14.20;81.70
11049;BME280;5577;42.706;23.160;2023-10-08T05:51:49;94514.81;;;14.31;81.92
11049;BME280;5577;42.706;23.160;2023-10-08T05:54:33;94516.84;;;14.41;86.25
11049;BME280;5577;42.706;23.160;2023-10-08T05:57:31;94524.31;;;14.58;84.33
11049;BME280;5577;42.706;23.160;2023-10-08T06:00:30;94526.00;;;14.70;79.83
11049;BME280;5577;42.706;23.160;2023-10-08T06:03:30;94534.47;;;14.79;79.43
11049;BME280;5577;42.706;23.160;2023-10-08T06:06:43;94518.84;;;14.77;77.38
11049;BME280;5577;42.706;23.160;2023-10-08T06:09:41;94530.63;;;15.06;78.71
11049;BME280;5577;42.706;23.160;2023-10-08T06:12:34;94527.75;;;15.21;78.34
11049;BME280;5577;42.706;23.160;2023-10-08T06:15:37;94525.97;;;15.32;78.73
11049;BME280;5577;42.706;23.160;2023-10-08T06:18:33;94516.53;;;15.38;78.29
11049;BME280;5577;42.706;23.160;2023-10-08T06:21:17;94522.88;;;15.63;77.16
11049;BME280;5577;42.706;23.160;2023-10-08T06:24:03;94520.03;;;15.86;75.61
11049;BME280;5577;42.706;23.160;2023-10-08T06:26:52;94512.19;;;16.07;74.93
11049;BME280;5577;42.706;23.160;2023-10-08T06:29:40;94523.78;;;16.25;72.65
11049;BME280;5577;42.706;23.160;2023-10-08T06:32:28;94516.56;;;16.32;70.36
11049;BME280;5577;42.706;23.160;2023-10-08T06:35:14;94528.59;;;16.56;71.07
11049;BME280;5577;42.706;23.160;2023-10-08T06:38:02;94522.19;;;16.78;70.57
11049;BME280;5577;42.706;23.160;2023-10-08T06:40:59;94519.25;;;16.97;68.22
11049;BME280;5577;42.706;23.160;2023-10-08T06:43:45;94521.59;;;17.16;67.25
11049;BME280;5577;42.706;23.160;2023-10-08T06:46:49;94525.09;;;17.34;63.91
11049;BME280;5577;42.706;23.160;2023-10-08T06:49:36;94524.81;;;17.57;60.03
11049;BME280;5577;42.706;23.160;2023-10-08T06:52:23;94517.56;;;17.75;57.21
11049;BME280;5577;42.706;23.160;2023-10-08T06:55:07;94523.69;;;17.89;53.93
11049;BME280;5577;42.706;23.160;2023-10-08T06:57:55;94519.88;;;18.08;54.37
11049;BME280;5577;42.706;23.160;2023-10-08T07:00:39;94524.06;;;18.26;55.06
11049;BME280;5577;42.706;23.160;2023-10-08T07:03:24;94521.00;;;18.35;52.66
11049;BME280;5577;42.706;23.160;2023-10-08T07:06:08;94523.69;;;18.42;50.38
11049;BME280;5577;42.706;23.160;2023-10-08T07:09:11;94513.34;;;18.54;50.92
11049;BME280;5577;42.706;23.160;2023-10-08T07:12:13;94521.75;;;18.67;47.75
11049;BME280;5577;42.706;23.160;2023-10-08T07:14:58;94504.84;;;18.80;46.80
11049;BME280;5577;42.706;23.160;2023-10-08T07:17:42;94512.84;;;18.91;46.24
11049;BME280;5577;42.706;23.160;2023-10-08T07:20:27;94510.13;;;19.05;46.73
11049;BME280;5577;42.706;23.160;2023-10-08T07:23:12;94506.66;;;19.08;45.74
11049;BME280;5577;42.706;23.160;2023-10-08T07:26:03;94496.28;;;19.17;46.35
11049;BME280;5577;42.706;23.160;2023-10-08T07:29:02;94502.75;;;19.33;46.07
11049;BME280;5577;42.706;23.160;2023-10-08T07:31:51;94503.84;;;19.43;45.15
11049;BME280;5577;42.706;23.160;2023-10-08T07:34:37;94453.69;;;19.29;45.97
11049;BME280;5577;42.706;23.160;2023-10-08T07:37:21;94497.59;;;19.60;44.59
11049;BME280;5577;42.706;23.160;2023-10-08T07:40:05;94492.88;;;19.78;46.00
11049;BME280;5577;42.706;23.160;2023-10-08T07:42:53;94489.69;;;19.94;44.94
11049;BME280;5577;42.706;23.160;2023-10-08T07:45:37;94478.84;;;20.04;44.29
11049;BME280;5577;42.706;23.160;2023-10-08T07:48:21;94488.38;;;20.19;43.02
11049;BME280;5577;42.706;23.160;2023-10-08T07:51:14;94492.56;;;20.20;42.62
11049;BME280;5577;42.706;23.160;2023-10-08T07:53:58;94492.56;;;20.20;43.27
11049;BME280;5577;42.706;23.160;2023-10-08T07:56:43;94487.88;;;20.31;42.72
11049;BME280;5577;42.706;23.160;2023-10-08T07:59:27;94488.78;;;20.14;42.53
11049;BME280;5577;42.706;23.160;2023-10-08T08:02:11;94492.56;;;20.20;43.32
11049;BME280;5577;42.706;23.160;2023-10-08T08:04:55;94486.53;;;20.50;42.78
11049;BME280;5577;42.706;23.160;2023-10-08T08:07:39;94480.47;;;20.79;41.89
11049;BME280;5577;42.706;23.160;2023-10-08T08:10:22;94479.13;;;20.98;41.32
11049;BME280;5577;42.706;23.160;2023-10-08T08:13:07;94470.19;;;21.04;40.37
11049;BME280;5577;42.706;23.160;2023-10-08T08:15:54;94469.72;;;21.13;39.50
11049;BME280;5577;42.706;23.160;2023-10-08T08:18:50;94419.09;;;21.01;39.81
11049;BME280;5577;42.706;23.160;2023-10-08T08:21:35;94452.63;;;21.53;39.43
11049;BME280;5577;42.706;23.160;2023-10-08T08:24:19;94453.09;;;21.97;39.29
11049;BME280;5577;42.706;23.160;2023-10-08T08:27:12;94457.16;;;22.09;38.01
11049;BME280;5577;42.706;23.160;2023-10-08T08:30:08;94451.47;;;21.80;38.61
11049;BME280;5577;42.706;23.160;2023-10-08T08:32:59;94453.69;;;21.59;39.12
11049;BME280;5577;42.706;23.160;2023-10-08T08:35:44;94450.47;;;21.67;39.18
11049;BME280;5577;42.706;23.160;2023-10-08T08:38:29;94448.66;;;21.87;39.08
11049;BME280;5577;42.706;23.160;2023-10-08T08:41:16;94445.47;;;21.96;38.23
11049;BME280;5577;42.706;23.160;2023-10-08T08:44:03;94456.81;;;22.07;38.90
11049;BME280;5577;42.706;23.160;2023-10-08T08:46:51;94444.22;;;22.23;38.83
11049;BME280;5577;42.706;23.160;2023-10-08T08:49:36;94452.94;;;22.31;38.19
11049;BME280;5577;42.706;23.160;2023-10-08T08:52:23;94449.34;;;22.14;39.08
11049;BME280;5577;42.706;23.160;2023-10-08T08:55:08;94450.00;;;21.99;37.68
11049;BME280;5577;42.706;23.160;2023-10-08T08:58:02;94446.81;;;21.81;38.10
11049;BME280;5577;42.706;23.160;2023-10-08T09:00:52;94448.06;;;21.76;39.02
11049;BME280;5577;42.706;23.160;2023-10-08T09:03:37;94445.38;;;21.76;39.62
11049;BME280;5577;42.706;23.160;2023-10-08T09:06:21;94437.41;;;21.92;40.93
11049;BME280;5577;42.706;23.160;2023-10-08T09:09:05;94440.59;;;21.87;39.12
11049;BME280;5577;42.706;23.160;2023-10-08T09:12:18;94440.41;;;21.75;39.30
11049;BME280;5577;42.706;23.160;2023-10-08T09:15:05;94437.28;;;21.76;39.33
11049;BME280;5577;42.706;23.160;2023-10-08T09:17:56;94431.25;;;22.38;39.17
11049;BME280;5577;42.706;23.160;2023-10-08T09:20:40;94407.69;;;23.01;37.65
11049;BME280;5577;42.706;23.160;2023-10-08T09:23:28;94428.47;;;23.20;37.91
11049;BME280;5577;42.706;23.160;2023-10-08T09:26:13;94434.13;;;23.09;37.74
11049;BME280;5577;42.706;23.160;2023-10-08T09:28:58;94419.31;;;23.69;39.11
11049;BME280;5577;42.706;23.160;2023-10-08T09:31:52;94420.47;;;24.48;36.46
11049;BME280;5577;42.706;23.160;2023-10-08T09:34:39;94416.56;;;24.49;35.85
11049;BME280;5577;42.706;23.160;2023-10-08T09:37:24;94410.84;;;24.31;35.90
11049;BME280;5577;42.706;23.160;2023-10-08T09:40:09;94413.50;;;24.63;36.68
11049;BME280;5577;42.706;23.160;2023-10-08T09:42:55;94420.78;;;24.50;35.00
11049;BME280;5577;42.706;23.160;2023-10-08T09:45:43;94410.13;;;24.87;34.56
11049;BME280;5577;42.706;23.160;2023-10-08T09:48:30;94404.47;;;24.53;34.47
11049;BME280;5577;42.706;23.160;2023-10-08T09:51:14;94413.34;;;23.93;35.61
11049;BME280;5577;42.706;23.160;2023-10-08T09:56:54;94394.56;;;24.02;36.50
11049;BME280;5577;42.706;23.160;2023-10-08T09:59:41;94388.78;;;24.89;33.53
11049;BME280;5577;42.706;23.160;2023-10-08T10:02:27;94398.94;;;25.89;32.52
11049;BME280;5577;42.706;23.160;2023-10-08T10:05:12;94398.66;;;26.55;30.66
11049;BME280;5577;42.706;23.160;2023-10-08T10:07:56;94386.38;;;25.70;31.73
11049;BME280;5577;42.706;23.160;2023-10-08T10:10:40;94382.66;;;25.27;31.82
11049;BME280;5577;42.706;23.160;2023-10-08T10:13:38;94310.41;;;26.72;31.04
11049;BME280;5577;42.706;23.160;2023-10-08T10:16:23;94376.56;;;28.91;28.93
11049;BME280;5577;42.706;23.160;2023-10-08T10:19:16;94385.06;;;29.11;28.05
11049;BME280;5577;42.706;23.160;2023-10-08T10:22:01;94378.56;;;28.72;28.78
11049;BME280;5577;42.706;23.160;2023-10-08T10:24:46;94368.94;;;26.95;30.26
11049;BME280;5577;42.706;23.160;2023-10-08T10:27:30;94360.00;;;26.30;31.94
11049;BME280;5577;42.706;23.160;2023-10-08T10:30:14;94378.44;;;25.76;32.39
11049;BME280;5577;42.706;23.160;2023-10-08T10:33:02;94363.25;;;27.02;32.14
11049;BME280;5577;42.706;23.160;2023-10-08T10:35:51;94351.28;;;28.00;30.73
11049;BME280;5577;42.706;23.160;2023-10-08T10:38:35;94358.66;;;27.20;31.23
11049;BME280;5577;42.706;23.160;2023-10-08T10:41:19;94348.59;;;26.01;32.30
11049;BME280;5577;42.706;23.160;2023-10-08T10:44:03;94342.44;;;25.13;33.89
11049;BME280;5577;42.706;23.160;2023-10-08T10:46:52;94350.75;;;24.52;35.36
11049;BME280;5577;42.706;23.160;2023-10-08T10:49:56;94341.50;;;25.32;34.81
11049;BME280;5577;42.706;23.160;2023-10-08T10:52:40;94341.31;;;25.85;33.97
11049;BME280;5577;42.706;23.160;2023-10-08T10:55:35;94326.75;;;26.38;33.18
11049;BME280;5577;42.706;23.160;2023-10-08T10:58:21;94335.13;;;26.96;32.36
11049;BME280;5577;42.706;23.160;2023-10-08T11:01:08;94314.28;;;26.93;31.98
11049;BME280;5577;42.706;23.160;2023-10-08T11:04:07;94308.81;;;26.41;32.54
11049;BME280;5577;42.706;23.160;2023-10-08T11:06:59;94323.69;;;26.15;32.81
11049;BME280;5577;42.706;23.160;2023-10-08T11:09:44;94303.94;;;26.36;32.49
11049;BME280;5577;42.706;23.160;2023-10-08T11:12:29;94311.56;;;26.28;33.05
11049;BME280;5577;42.706;23.160;2023-10-08T11:15:30;94302.78;;;25.44;34.13
11049;BME280;5577;42.706;23.160;2023-10-08T11:18:25;94305.03;;;25.08;34.88
11049;BME280;5577;42.706;23.160;2023-10-08T11:21:12;94295.72;;;24.83;35.50
11049;BME280;5577;42.706;23.160;2023-10-08T11:24:09;94305.34;;;24.72;36.18
11049;BME280;5577;42.706;23.160;2023-10-08T11:26:53;94302.50;;;24.63;36.42
11049;BME280;5577;42.706;23.160;2023-10-08T11:29:59;94308.75;;;24.60;36.37
11049;BME280;5577;42.706;23.160;2023-10-08T11:32:43;94276.69;;;24.46;36.30
11049;BME280;5577;42.706;23.160;2023-10-08T11:35:31;94289.88;;;24.44;36.82
11049;BME280;5577;42.706;23.160;2023-10-08T11:38:17;94300.19;;;24.20;37.27
11049;BME280;5577;42.706;23.160;2023-10-08T11:41:11;94302.38;;;23.97;38.03
11049;BME280;5577;42.706;23.160;2023-10-08T11:43:57;94304.50;;;23.73;38.38
11049;BME280;5577;42.706;23.160;2023-10-08T11:46:42;94306.19;;;23.67;38.27
11049;BME280;5577;42.706;23.160;2023-10-08T11:49:28;94298.94;;;23.64;38.34
11049;BME280;5577;42.706;23.160;2023-10-08T11:52:16;94310.78;;;23.38;39.31
11049;BME280;5577;42.706;23.160;2023-10-08T11:55:05;94305.97;;;23.46;38.76
11049;BME280;5577;42.706;23.160;2023-10-08T11:57:50;94308.91;;;23.67;38.58
11049;BME280;5577;42.706;23.160;2023-10-08T12:00:39;94302.31;;;23.68;38.86
11049;BME280;5577;42.706;23.160;2023-10-08T12:03:29;94300.53;;;23.78;38.46
11049;BME280;5577;42.706;23.160;2023-10-08T12:06:16;94286.28;;;23.61;38.80
11049;BME280;5577;42.706;23.160;2023-10-08T12:09:02;94294.41;;;23.61;40.09
11049;BME280;5577;42.706;23.160;2023-10-08T12:11:55;94292.28;;;23.53;39.54
11049;BME280;5577;42.706;23.160;2023-10-08T12:14:41;94295.97;;;23.59;39.77
11049;BME280;5577;42.706;23.160;2023-10-08T12:17:29;94274.59;;;24.37;39.42
11049;BME280;5577;42.706;23.160;2023-10-08T12:20:23;94284.69;;;25.41;37.47
11049;BME280;5577;42.706;23.160;2023-10-08T12:23:07;94243.50;;;25.80;36.48
11049;BME280;5577;42.706;23.160;2023-10-08T12:25:57;94273.56;;;26.50;35.83
11049;BME280;5577;42.706;23.160;2023-10-08T12:28:46;94289.97;;;26.46;34.96
11049;BME280;5577;42.706;23.160;2023-10-08T12:31:32;94283.41;;;26.35;35.48
11049;BME280;5577;42.706;23.160;2023-10-08T12:34:17;94282.19;;;26.57;35.10
11049;BME280;5577;42.706;23.160;2023-10-08T12:37:02;94281.50;;;26.87;35.68
11049;BME280;5577;42.706;23.160;2023-10-08T12:39:46;94280.38;;;27.06;34.97
11049;BME280;5577;42.706;23.160;2023-10-08T12:42:43;94277.94;;;26.69;35.24
11049;BME280;5577;42.706;23.160;2023-10-08T12:45:28;94294.09;;;26.08;35.70
11049;BME280;5577;42.706;23.160;2023-10-08T12:48:12;94283.22;;;25.61;36.32
11049;BME280;5577;42.706;23.160;2023-10-08T12:50:58;94270.16;;;25.10;37.00
11049;BME280;5577;42.706;23.160;2023-10-08T12:53:42;94262.69;;;24.63;37.69
11049;BME280;5577;42.706;23.160;2023-10-08T12:56:35;94269.31;;;24.87;37.42
11049;BME280;5577;42.706;23.160;2023-10-08T12:59:20;94258.31;;;25.41;37.15
11049;BME280;5577;42.706;23.160;2023-10-08T13:02:04;94260.00;;;25.73;37.15
11049;BME280;5577;42.706;23.160;2023-10-08T13:04:52;94259.31;;;26.15;35.88
11049;BME280;5577;42.706;23.160;2023-10-08T13:07:38;94245.75;;;26.37;35.16
11049;BME280;5577;42.706;23.160;2023-10-08T13:10:26;94238.31;;;26.59;35.42
11049;BME280;5577;42.706;23.160;2023-10-08T13:13:10;94246.56;;;26.77;35.00
11049;BME280;5577;42.706;23.160;2023-10-08T13:15:56;94247.59;;;27.40;34.80
11049;BME280;5577;42.706;23.160;2023-10-08T13:18:40;94236.91;;;27.64;33.39
11049;BME280;5577;42.706;23.160;2023-10-08T13:21:27;94234.19;;;27.06;34.11
11049;BME280;5577;42.706;23.160;2023-10-08T13:24:12;94236.03;;;26.27;35.54
11049;BME280;5577;42.706;23.160;2023-10-08T13:26:56;94230.22;;;25.82;36.28
11049;BME280;5577;42.706;23.160;2023-10-08T13:29:42;94220.50;;;25.25;36.71
11049;BME280;5577;42.706;23.160;2023-10-08T13:32:27;94234.75;;;24.79;36.50
11049;BME280;5577;42.706;23.160;2023-10-08T13:35:11;94226.34;;;24.48;37.27
11049;BME280;5577;42.706;23.160;2023-10-08T13:37:55;94236.38;;;24.23;38.24
11049;BME280;5577;42.706;23.160;2023-10-08T13:40:39;94238.16;;;24.13;38.66
11049;BME280;5577;42.706;23.160;2023-10-08T13:43:28;94235.53;;;23.97;38.38
11049;BME280;5577;42.706;23.160;2023-10-08T13:46:18;94183.94;;;23.76;38.88
11049;BME280;5577;42.706;23.160;2023-10-08T13:49:03;94222.13;;;23.78;38.69
11049;BME280;5577;42.706;23.160;2023-10-08T13:51:50;94235.34;;;23.88;38.79
11049;BME280;5577;42.706;23.160;2023-10-08T13:54:39;94237.47;;;23.97;39.16
11049;BME280;5577;42.706;23.160;2023-10-08T13:57:30;94240.28;;;23.93;38.45
11049;BME280;5577;42.706;23.160;2023-10-08T14:00:17;94242.47;;;23.98;38.83
11049;BME280;5577;42.706;23.160;2023-10-08T14:03:09;94238.66;;;23.96;39.14
11049;BME280;5577;42.706;23.160;2023-10-08T14:05:55;94246.16;;;24.04;39.87
11049;BME280;5577;42.706;23.160;2023-10-08T14:08:43;94252.19;;;23.96;39.03
11049;BME280;5577;42.706;23.160;2023-10-08T14:11:38;94250.06;;;23.87;39.42
11049;BME280;5577;42.706;23.160;2023-10-08T14:14:23;94249.88;;;24.10;38.79
11049;BME280;5577;42.706;23.160;2023-10-08T14:17:13;94246.69;;;24.40;39.00
11049;BME280;5577;42.706;23.160;2023-10-08T14:20:20;94235.00;;;24.43;38.52
11049;BME280;5577;42.706;23.160;2023-10-08T14:23:07;94253.59;;;24.41;37.60
11049;BME280;5577;42.706;23.160;2023-10-08T14:25:52;94250.34;;;24.34;37.96
11049;BME280;5577;42.706;23.160;2023-10-08T14:28:39;94247.06;;;24.14;37.94
11049;BME280;5577;42.706;23.160;2023-10-08T14:31:37;94255.25;;;23.82;38.16
11049;BME280;5577;42.706;23.160;2023-10-08T14:34:25;94248.34;;;23.65;38.55
11049;BME280;5577;42.706;23.160;2023-10-08T14:37:28;94238.53;;;23.26;39.28
11049;BME280;5577;42.706;23.160;2023-10-08T14:40:31;94242.63;;;22.99;39.52
11049;BME280;5577;42.706;23.160;2023-10-08T14:43:34;94242.88;;;22.88;40.24
11049;BME280;5577;42.706;23.160;2023-10-08T14:46:18;94243.09;;;22.78;39.82
11049;BME280;5577;42.706;23.160;2023-10-08T14:49:03;94236.28;;;22.73;40.10
11049;BME280;5577;42.706;23.160;2023-10-08T14:51:48;94236.84;;;22.65;39.98
11049;BME280;5577;42.706;23.160;2023-10-08T14:54:32;94233.69;;;22.50;40.52
11049;BME280;5577;42.706;23.160;2023-10-08T14:57:17;94245.03;;;22.61;40.38